Seattle, Washington
Traffic Map
Current Weather Conditions
Seattle, Washington
Overcast
Overcast
56°
Feels Like: 56°
Wind Chill: 56° Ceiling: 2400
Heat Index: 56° Visibility: 10mi
Dew Point: 47° Wind: 7mph
Humidity: 72% Direction: 170° (S)
Pressure: 30.26in Gusts: 0mph
Raw Report DataKBFI 270653Z 17006KT 10SM SCT016 BKN024 OVC028 13/08 A3026 RMK AO2 SLP245 T01330083
Traffic Incident Summary
Active as of:
Severity:
Category:
InformationThere was an issue retrieving the traffic information for this location. Please try a different location or try again shortly.
Advertisements
Track Severe Weather on mobile